createdAt,value
2023-01-04T00:01:17.828Z,26.70
2023-01-04T00:03:44.936Z,27.52
2023-01-04T00:06:16.290Z,26.50
2023-01-04T00:08:43.664Z,26.85
2023-01-04T00:11:19.406Z,26.52
2023-01-04T00:13:50.013Z,26.50
2023-01-04T00:16:19.679Z,26.40
2023-01-04T00:18:47.268Z,25.80
2023-01-04T00:21:19.403Z,24.70
2023-01-04T00:23:48.241Z,26.05
2023-01-04T00:26:21.611Z,24.42
2023-01-04T00:31:22.280Z,23.45
2023-01-04T00:33:49.496Z,24.08
2023-01-04T00:36:16.934Z,23.27
2023-01-04T00:38:44.061Z,23.90
2023-01-04T00:41:34.460Z,25.35
2023-01-04T00:43:59.936Z,27.10
2023-01-04T00:46:26.767Z,26.75
2023-01-04T00:48:58.177Z,25.35
2023-01-04T00:51:28.023Z,26.10
2023-01-04T00:53:54.785Z,26.25
2023-01-04T00:56:21.630Z,26.58
2023-01-04T00:58:48.366Z,25.75
2023-01-04T01:01:15.398Z,26.20
2023-01-04T01:03:44.634Z,25.05
2023-01-04T01:06:12.556Z,25.33
2023-01-04T01:08:39.798Z,24.05
2023-01-04T01:11:11.072Z,25.90
2023-01-04T01:13:38.713Z,23.52
2023-01-04T01:16:07.537Z,23.45
2023-01-04T01:18:35.474Z,22.58
2023-01-04T01:21:09.815Z,24.65
2023-01-04T01:23:37.015Z,21.08
2023-01-04T01:26:06.049Z,22.40
2023-01-04T01:28:34.047Z,22.38
2023-01-04T01:31:08.703Z,22.38
2023-01-04T01:33:40.532Z,23.70
2023-01-04T01:36:09.173Z,20.23
2023-01-04T01:38:36.755Z,20.85
2023-01-04T01:41:03.990Z,20.88
2023-01-04T01:44:06.944Z,19.90
2023-01-04T01:46:46.994Z,23.08
2023-01-04T01:49:37.598Z,21.20
2023-01-04T01:52:08.043Z,21.10
2023-01-04T01:54:42.821Z,20.70
2023-01-04T01:57:13.777Z,19.73
2023-01-04T01:59:42.919Z,19.60
2023-01-04T02:02:10.899Z,18.42
2023-01-04T02:04:43.231Z,18.20
2023-01-04T02:07:13.276Z,19.75
2023-01-04T02:09:40.831Z,19.80
2023-01-04T02:12:12.695Z,19.50
2023-01-04T02:14:42.369Z,20.00
2023-01-04T02:17:45.127Z,21.02
2023-01-04T02:20:27.489Z,19.35
2023-01-04T02:23:00.088Z,18.88
2023-01-04T02:25:45.087Z,17.83
2023-01-04T02:28:36.247Z,17.90
2023-01-04T02:31:30.110Z,17.88
2023-01-04T02:33:56.951Z,16.90
2023-01-04T02:36:23.620Z,16.73
2023-01-04T02:39:29.255Z,16.58
2023-01-04T02:42:54.366Z,16.77
2023-01-04T02:45:25.189Z,16.30
2023-01-04T02:48:11.337Z,17.95
2023-01-04T02:50:54.953Z,17.17
2023-01-04T02:55:50.402Z,16.08
2023-01-04T02:58:56.651Z,17.00
2023-01-04T03:02:06.478Z,16.58
2023-01-04T03:05:36.407Z,15.27
2023-01-04T03:08:23.338Z,16.63
2023-01-04T03:10:50.111Z,15.75
2023-01-04T03:13:25.735Z,17.13
2023-01-04T03:15:55.536Z,15.90
2023-01-04T03:18:27.798Z,17.55
2023-01-04T03:20:58.748Z,16.80
2023-01-04T03:23:48.983Z,16.05
2023-01-04T03:26:46.727Z,15.63
2023-01-04T03:29:55.759Z,15.40
2023-01-04T03:33:13.749Z,14.48
2023-01-04T03:35:56.054Z,15.65
2023-01-04T03:39:06.995Z,14.88
2023-01-04T03:42:04.341Z,15.05
2023-01-04T03:44:52.643Z,15.95
2023-01-04T03:48:17.863Z,14.75
2023-01-04T03:50:56.590Z,14.98
2023-01-04T03:53:24.404Z,14.93
2023-01-04T03:55:52.758Z,14.35
2023-01-04T03:58:20.494Z,14.07
2023-01-04T04:00:48.421Z,15.20
2023-01-04T04:03:15.330Z,14.60
2023-01-04T04:06:02.799Z,15.70
2023-01-04T04:08:29.918Z,14.07
2023-01-04T04:11:22.255Z,14.38
2023-01-04T04:13:50.499Z,13.45
2023-01-04T04:16:18.265Z,14.13
2023-01-04T04:18:45.179Z,14.35
2023-01-04T04:21:11.933Z,15.32
2023-01-04T04:23:38.639Z,14.30
2023-01-04T04:26:05.574Z,14.52
2023-01-04T04:28:32.768Z,13.63
2023-01-04T04:30:59.570Z,14.07
2023-01-04T04:33:26.429Z,14.25
2023-01-04T04:35:55.090Z,14.07
2023-01-04T04:38:23.031Z,14.15
2023-01-04T04:41:08.373Z,15.10
2023-01-04T04:43:35.659Z,13.40
2023-01-04T04:46:02.978Z,15.82
2023-01-04T04:48:29.865Z,15.43
2023-01-04T04:50:56.692Z,15.75
2023-01-04T04:53:23.669Z,15.73
2023-01-04T04:55:54.243Z,16.42
2023-01-04T04:58:21.500Z,15.88
2023-01-04T05:00:48.308Z,16.92
2023-01-04T05:03:15.217Z,17.27
2023-01-04T05:05:42.409Z,17.02
2023-01-04T05:08:09.387Z,16.42
2023-01-04T05:10:36.839Z,16.67
2023-01-04T05:13:06.017Z,18.27
2023-01-04T05:15:36.411Z,17.02
2023-01-04T05:18:03.272Z,18.23
2023-01-04T05:20:29.949Z,17.10
2023-01-04T05:22:56.683Z,17.67
2023-01-04T05:25:23.965Z,17.08
2023-01-04T05:27:50.892Z,18.27
2023-01-04T05:30:37.035Z,16.90
2023-01-04T05:33:04.385Z,16.60
2023-01-04T05:35:31.157Z,16.83
2023-01-04T05:37:58.136Z,17.70
2023-01-04T05:40:25.000Z,17.42
2023-01-04T05:42:52.524Z,17.40
2023-01-04T05:45:21.144Z,17.17
2023-01-04T05:47:52.551Z,17.23
2023-01-04T05:50:21.381Z,17.33
2023-01-04T05:52:49.011Z,15.82
2023-01-04T05:55:16.014Z,17.73
2023-01-04T05:57:43.327Z,16.77
2023-01-04T06:00:11.540Z,17.50
2023-01-04T06:02:42.247Z,17.45
2023-01-04T06:05:10.647Z,17.35
2023-01-04T06:07:38.627Z,17.52
2023-01-04T06:10:08.099Z,17.95
2023-01-04T06:12:34.965Z,17.50
2023-01-04T06:15:02.053Z,16.23
2023-01-04T06:17:30.315Z,16.65
2023-01-04T06:19:57.100Z,17.10
2023-01-04T06:22:24.020Z,17.27
2023-01-04T06:24:50.760Z,16.77
2023-01-04T06:27:17.553Z,15.82
2023-01-04T06:29:44.408Z,15.00
2023-01-04T06:32:11.332Z,15.60
2023-01-04T06:34:38.091Z,15.30
2023-01-04T06:37:06.051Z,15.65
2023-01-04T06:39:32.956Z,16.15
2023-01-04T06:42:06.297Z,16.52
2023-01-04T06:44:33.240Z,16.38
2023-01-04T06:46:59.997Z,16.05
2023-01-04T06:49:26.732Z,16.33
2023-01-04T06:51:53.468Z,14.82
2023-01-04T06:54:20.231Z,15.07
2023-01-04T06:56:46.991Z,14.63
2023-01-04T06:59:13.762Z,14.32
2023-01-04T07:01:40.645Z,15.05
2023-01-04T07:04:08.192Z,14.15
2023-01-04T07:06:34.986Z,14.57
2023-01-04T07:09:01.765Z,14.63
2023-01-04T07:11:28.579Z,14.40
2023-01-04T07:13:55.415Z,12.80
2023-01-04T07:16:22.292Z,12.68
2023-01-04T07:18:49.106Z,11.10
2023-01-04T07:21:15.944Z,11.18
2023-01-04T07:23:42.782Z,10.85
2023-01-04T07:26:09.597Z,10.13
2023-01-04T07:28:54.659Z,11.55
2023-01-04T07:31:21.605Z,11.05
2023-01-04T07:33:50.879Z,11.45
2023-01-04T07:36:17.744Z,11.23
2023-01-04T07:38:44.661Z,12.98
2023-01-04T07:41:11.494Z,13.43
2023-01-04T07:43:38.247Z,11.93
2023-01-04T07:46:05.021Z,12.05
2023-01-04T07:48:31.740Z,11.75
2023-01-04T07:50:58.514Z,12.82
2023-01-04T07:53:25.223Z,12.68
2023-01-04T07:55:57.143Z,13.48
2023-01-04T07:58:24.192Z,12.57
2023-01-04T08:00:51.311Z,12.80
2023-01-04T08:03:18.124Z,13.88
2023-01-04T08:05:45.017Z,12.25
2023-01-04T08:08:11.906Z,14.00
2023-01-04T08:10:38.840Z,13.30
2023-01-04T08:13:05.699Z,12.35
2023-01-04T08:15:33.444Z,14.27
2023-01-04T08:18:00.591Z,13.55
2023-01-04T08:20:27.521Z,13.35
2023-01-04T08:22:54.551Z,12.95
2023-01-04T08:25:21.423Z,13.65
2023-01-04T08:27:48.748Z,13.70
2023-01-04T08:30:15.577Z,12.98
2023-01-04T08:32:42.375Z,12.88
2023-01-04T08:35:09.451Z,14.05
2023-01-04T08:37:36.256Z,15.32
2023-01-04T08:40:03.472Z,14.13
2023-01-04T08:42:31.732Z,14.43
2023-01-04T08:45:01.387Z,15.13
2023-01-04T08:47:32.772Z,15.00
2023-01-04T08:50:03.460Z,14.98
2023-01-04T08:52:34.734Z,15.90
2023-01-04T08:55:04.367Z,17.30
2023-01-04T08:57:35.305Z,18.73
2023-01-04T09:00:02.416Z,19.00
2023-01-04T09:02:30.690Z,21.85
2023-01-04T09:05:03.957Z,22.48
2023-01-04T09:07:31.895Z,21.02
2023-01-04T09:10:00.772Z,20.98
2023-01-04T09:12:27.680Z,21.55
2023-01-04T09:14:55.029Z,22.83
2023-01-04T09:17:22.972Z,22.67
2023-01-04T09:19:49.819Z,20.98
2023-01-04T09:22:16.723Z,21.13
2023-01-04T09:24:43.540Z,22.58
2023-01-04T09:27:10.253Z,21.95
2023-01-04T09:29:37.011Z,21.30
2023-01-04T09:32:03.891Z,21.00
2023-01-04T09:34:30.790Z,20.75
2023-01-04T09:36:57.701Z,21.45
2023-01-04T09:39:26.334Z,20.90
2023-01-04T09:42:06.719Z,20.92
2023-01-04T09:47:57.368Z,20.98
2023-01-04T09:50:37.892Z,19.75
2023-01-04T09:53:45.779Z,18.60
2023-01-04T09:56:26.601Z,18.45
2023-01-04T09:58:54.627Z,18.45
2023-01-04T10:01:25.590Z,18.20
2023-01-04T10:04:11.108Z,18.25
2023-01-04T10:06:38.302Z,17.58
2023-01-04T10:09:11.883Z,19.23
2023-01-04T10:12:08.929Z,18.73
2023-01-04T10:15:08.511Z,17.35
2023-01-04T10:21:34.082Z,14.88
2023-01-04T10:24:45.623Z,15.25
2023-01-04T10:27:43.304Z,15.57
2023-01-04T10:30:25.422Z,14.93
2023-01-04T10:33:07.626Z,13.43
2023-01-04T10:35:36.802Z,14.85
2023-01-04T10:38:10.410Z,13.98
2023-01-04T10:40:40.223Z,13.95
2023-01-04T10:44:09.516Z,13.57
2023-01-04T10:46:40.886Z,14.57
2023-01-04T10:49:35.388Z,14.65
2023-01-04T10:52:16.955Z,13.95
2023-01-04T10:54:57.574Z,14.35
2023-01-04T10:57:30.839Z,15.73
2023-01-04T11:02:38.229Z,22.60
2023-01-04T11:05:33.390Z,23.55
2023-01-04T11:08:16.122Z,23.13
2023-01-04T11:11:00.443Z,23.65
2023-01-04T11:13:28.323Z,23.52
2023-01-04T11:15:56.373Z,24.42
2023-01-04T11:18:23.631Z,24.67
2023-01-04T11:20:51.273Z,23.83
2023-01-04T11:23:20.352Z,23.75
2023-01-04T11:26:00.491Z,22.63
2023-01-04T11:28:54.972Z,24.20
2023-01-04T11:31:45.605Z,25.17
2023-01-04T11:34:12.813Z,24.42
2023-01-04T11:36:47.533Z,25.23
2023-01-04T11:39:21.562Z,26.08
2023-01-04T11:42:06.118Z,25.88
2023-01-04T11:44:35.283Z,28.30
2023-01-04T11:47:15.632Z,28.10
2023-01-04T11:49:42.564Z,31.17
2023-01-04T11:52:33.418Z,30.95
2023-01-04T11:58:13.139Z,30.15
2023-01-04T12:00:56.982Z,30.83
2023-01-04T12:03:40.198Z,29.55
2023-01-04T12:06:25.046Z,29.20
2023-01-04T12:08:51.932Z,28.08
2023-01-04T12:11:32.025Z,30.83
2023-01-04T12:14:00.237Z,30.00
2023-01-04T12:16:47.415Z,28.38
2023-01-04T12:19:16.963Z,29.30
2023-01-04T12:21:47.441Z,28.75
2023-01-04T12:24:22.338Z,28.17
2023-01-04T12:26:50.573Z,29.23
2023-01-04T12:29:23.335Z,29.95
2023-01-04T12:32:05.534Z,32.55
2023-01-04T12:34:34.239Z,32.90
2023-01-04T12:37:05.594Z,28.27
2023-01-04T12:39:45.036Z,27.25
2023-01-04T12:42:15.944Z,28.58
2023-01-04T12:44:51.916Z,28.35
2023-01-04T12:47:45.015Z,28.17
2023-01-04T12:50:26.556Z,28.73
2023-01-04T12:53:28.202Z,31.25
2023-01-04T12:55:55.443Z,31.40
2023-01-04T12:59:06.900Z,32.47
2023-01-04T13:01:27.536Z,32.53
2023-01-04T13:04:05.194Z,30.08
2023-01-04T13:06:41.959Z,31.25
2023-01-04T13:09:23.966Z,34.00
2023-01-04T13:11:56.862Z,33.60
2023-01-04T13:14:48.295Z,33.10
2023-01-04T13:17:23.894Z,34.72
2023-01-04T13:19:51.047Z,43.67
2023-01-04T13:22:34.063Z,42.55
2023-01-04T13:25:03.009Z,43.58
2023-01-04T13:27:29.870Z,44.70
2023-01-04T13:29:56.689Z,46.55
2023-01-04T13:32:46.950Z,46.58
2023-01-04T13:35:19.657Z,55.67
2023-01-04T13:37:49.603Z,54.40
2023-01-04T13:40:35.957Z,57.33
2023-01-04T13:43:15.126Z,59.13
2023-01-04T13:46:07.079Z,57.15
2023-01-04T13:48:39.172Z,56.53
2023-01-04T13:51:36.271Z,57.63
2023-01-04T13:54:07.017Z,53.80
2023-01-04T13:56:35.124Z,51.17
2023-01-04T13:59:04.776Z,50.45
2023-01-04T14:01:42.632Z,45.35
2023-01-04T14:04:21.268Z,50.40
2023-01-04T14:06:52.989Z,51.88
2023-01-04T14:09:24.230Z,54.80
2023-01-04T14:12:07.685Z,53.33
2023-01-04T14:14:38.076Z,53.03
2023-01-04T14:17:18.550Z,58.47
2023-01-04T14:19:58.473Z,54.72
2023-01-04T14:22:42.416Z,53.03
2023-01-04T14:25:40.824Z,52.25
2023-01-04T14:28:24.582Z,54.95
2023-01-04T14:31:00.422Z,58.75
2023-01-04T14:33:36.768Z,56.75
2023-01-04T14:36:07.774Z,55.70
2023-01-04T14:38:57.228Z,55.15
2023-01-04T14:41:33.451Z,56.47
2023-01-04T14:44:00.229Z,52.15
2023-01-04T14:46:28.750Z,53.22
2023-01-04T14:48:55.985Z,52.05
2023-01-04T14:51:30.563Z,49.28
2023-01-04T14:53:57.255Z,46.30
2023-01-04T14:56:26.645Z,45.90
2023-01-04T14:58:53.546Z,45.67
2023-01-04T15:01:20.369Z,48.50
2023-01-04T15:03:47.272Z,46.88
2023-01-04T15:06:14.249Z,55.05
2023-01-04T15:08:41.015Z,57.28
2023-01-04T15:11:07.849Z,63.33
2023-01-04T15:13:39.991Z,58.53
2023-01-04T15:16:07.777Z,54.72
2023-01-04T15:18:34.655Z,53.33
2023-01-04T15:21:02.377Z,51.95
2023-01-04T15:23:29.185Z,52.05
2023-01-04T15:25:57.627Z,56.08
2023-01-04T15:28:26.429Z,56.05
2023-01-04T15:30:53.346Z,55.53
2023-01-04T15:33:20.208Z,56.33
2023-01-04T15:35:47.677Z,62.42
2023-01-04T15:38:18.388Z,51.03
2023-01-04T15:40:45.468Z,58.03
2023-01-04T15:43:12.187Z,53.35
2023-01-04T15:45:39.743Z,54.08
2023-01-04T15:48:08.389Z,54.90
2023-01-04T15:50:37.398Z,54.25
2023-01-04T15:53:04.982Z,48.72
2023-01-04T15:55:36.400Z,51.63
2023-01-04T15:58:06.461Z,49.67
2023-01-04T16:00:33.218Z,49.00
2023-01-04T16:03:00.150Z,45.95
2023-01-04T16:05:26.983Z,49.00
2023-01-04T16:07:53.711Z,45.97
2023-01-04T16:10:20.564Z,44.63
2023-01-04T16:12:53.087Z,43.05
2023-01-04T16:15:24.221Z,42.92
2023-01-04T16:17:51.130Z,43.80
2023-01-04T16:20:19.272Z,42.63
2023-01-04T16:22:46.575Z,42.85
2023-01-04T16:25:14.148Z,42.40
2023-01-04T16:27:41.419Z,42.83
2023-01-04T16:30:13.653Z,43.13
2023-01-04T16:32:45.512Z,42.50
2023-01-04T16:35:12.819Z,46.72
2023-01-04T16:37:43.393Z,49.00
2023-01-04T16:40:11.011Z,50.17
2023-01-04T16:42:38.844Z,50.17
2023-01-04T16:45:06.640Z,52.08
2023-01-04T16:47:40.471Z,49.25
2023-01-04T16:50:07.486Z,49.42
2023-01-04T16:52:34.504Z,51.97
2023-01-04T16:55:01.837Z,48.35
2023-01-04T16:57:30.464Z,51.28
2023-01-04T16:59:57.329Z,48.95
2023-01-04T17:02:24.809Z,48.90
2023-01-04T17:04:57.038Z,45.38
2023-01-04T17:07:25.380Z,46.28
2023-01-04T17:09:52.196Z,47.47
2023-01-04T17:17:53.503Z,45.63
2023-01-04T17:20:20.261Z,45.55
2023-01-04T17:22:47.043Z,47.53
2023-01-04T17:25:15.175Z,46.90
2023-01-04T17:27:41.940Z,47.60
2023-01-04T17:30:09.546Z,45.00
2023-01-04T17:32:37.556Z,47.15
2023-01-04T17:35:04.562Z,45.58
2023-01-04T17:37:31.546Z,45.03
2023-01-04T17:39:58.295Z,46.88
2023-01-04T17:42:25.084Z,49.08
2023-01-04T17:44:52.146Z,47.97
2023-01-04T17:47:19.472Z,49.00
2023-01-04T17:49:46.340Z,49.92
2023-01-04T17:52:20.106Z,48.10
2023-01-04T17:54:49.106Z,51.10
2023-01-04T17:57:15.924Z,50.20
2023-01-04T17:59:45.649Z,47.40
2023-01-04T18:02:12.597Z,49.65
2023-01-04T18:04:39.449Z,48.97
2023-01-04T18:07:06.362Z,52.38
2023-01-04T18:09:33.232Z,47.55
2023-01-04T18:12:00.114Z,50.45
2023-01-04T18:14:27.867Z,47.47
2023-01-04T18:16:58.773Z,48.67
2023-01-04T18:19:28.430Z,46.17
2023-01-04T18:21:55.994Z,49.58
2023-01-04T18:24:35.845Z,47.92
2023-01-04T18:29:51.278Z,48.58
2023-01-04T18:32:18.239Z,48.13
2023-01-04T18:34:45.053Z,46.13
2023-01-04T18:37:12.316Z,47.88
2023-01-04T18:39:39.246Z,52.17
2023-01-04T18:42:07.284Z,52.75
2023-01-04T18:44:36.059Z,55.28
2023-01-04T18:47:04.822Z,55.47
2023-01-04T18:49:32.088Z,57.55
2023-01-04T18:51:58.886Z,60.85
2023-01-04T18:54:25.700Z,57.15
2023-01-04T18:56:58.704Z,55.40
2023-01-04T18:59:28.317Z,57.00
2023-01-04T19:02:00.898Z,58.10
2023-01-04T19:04:35.149Z,56.58
2023-01-04T19:07:02.489Z,56.67
2023-01-04T19:09:30.789Z,58.20
2023-01-04T19:11:57.574Z,57.03
2023-01-04T19:14:24.304Z,56.35
2023-01-04T19:16:53.188Z,57.47
2023-01-04T19:19:20.372Z,56.38
2023-01-04T19:21:47.159Z,55.97
2023-01-04T19:24:13.910Z,56.15
2023-01-04T19:26:40.805Z,57.08
2023-01-04T19:29:08.662Z,58.08
2023-01-04T19:31:35.797Z,54.97
2023-01-04T19:34:02.627Z,51.85
2023-01-04T19:36:30.498Z,51.30
2023-01-04T19:38:57.706Z,42.15
2023-01-04T19:41:33.386Z,40.53
2023-01-04T19:44:06.592Z,45.78
2023-01-04T19:46:33.779Z,33.75
2023-01-04T19:49:03.618Z,33.75
2023-01-04T19:51:30.917Z,37.03
2023-01-04T19:53:57.669Z,30.42
2023-01-04T19:56:24.520Z,31.40
2023-01-04T19:58:51.314Z,26.75
2023-01-04T20:01:20.133Z,22.75
2023-01-04T20:03:47.877Z,22.55
2023-01-04T20:06:15.615Z,21.75
2023-01-04T20:08:43.138Z,22.92
2023-01-04T20:11:10.575Z,22.33
2023-01-04T20:13:38.820Z,21.45
2023-01-04T20:16:06.523Z,21.98
2023-01-04T20:18:34.371Z,22.02
2023-01-04T20:21:01.375Z,21.52
2023-01-04T20:23:28.220Z,21.17
2023-01-04T20:25:55.732Z,20.73
2023-01-04T20:28:24.360Z,21.38
2023-01-04T20:31:02.356Z,20.70
2023-01-04T20:33:30.411Z,19.60
2023-01-04T20:35:57.576Z,19.95
2023-01-04T20:38:24.484Z,19.50
2023-01-04T20:40:51.277Z,18.23
2023-01-04T20:43:33.147Z,18.73
2023-01-04T20:46:01.181Z,18.55
2023-01-04T20:48:28.739Z,16.65
2023-01-04T20:50:56.076Z,16.33
2023-01-04T20:53:23.234Z,16.27
2023-01-04T20:55:50.222Z,17.15
2023-01-04T20:58:17.626Z,15.70
2023-01-04T21:00:46.439Z,16.25
2023-01-04T21:03:13.604Z,16.02
2023-01-04T21:05:43.487Z,16.35
2023-01-04T21:08:11.793Z,16.13
2023-01-04T21:10:42.155Z,15.40
2023-01-04T21:13:10.597Z,15.35
2023-01-04T21:15:39.127Z,14.85
2023-01-04T21:18:07.532Z,14.70
2023-01-04T21:20:38.618Z,13.35
2023-01-04T21:23:05.350Z,12.90
2023-01-04T21:25:32.087Z,12.27
2023-01-04T21:28:00.762Z,12.05
2023-01-04T21:30:27.822Z,11.45
2023-01-04T21:32:58.529Z,12.05
2023-01-04T21:35:29.003Z,12.73
2023-01-04T21:37:55.790Z,11.10
2023-01-04T21:40:22.604Z,10.98
2023-01-04T21:42:49.323Z,10.77
2023-01-04T21:45:16.193Z,10.88
2023-01-04T21:47:42.993Z,10.18
2023-01-04T21:50:16.540Z,11.30
2023-01-04T21:52:43.953Z,10.55
2023-01-04T21:55:11.045Z,10.20
2023-01-04T21:57:39.176Z,9.90
2023-01-04T22:00:08.475Z,10.20
2023-01-04T22:02:35.755Z,10.45
2023-01-04T22:05:02.863Z,10.65
2023-01-04T22:07:29.963Z,9.38
2023-01-04T22:09:57.843Z,10.95
2023-01-04T22:12:24.766Z,11.25
2023-01-04T22:14:51.691Z,10.20
2023-01-04T22:17:18.507Z,10.85
2023-01-04T22:19:45.477Z,10.52
2023-01-04T22:22:12.389Z,10.27
2023-01-04T22:24:39.298Z,11.07
2023-01-04T22:27:06.100Z,10.77
2023-01-04T22:29:32.922Z,10.57
2023-01-04T22:32:00.169Z,10.13
2023-01-04T22:34:28.123Z,10.50
2023-01-04T22:36:55.100Z,10.30
2023-01-04T22:39:21.937Z,10.30
2023-01-04T22:41:48.627Z,10.50
2023-01-04T22:44:15.531Z,10.45
2023-01-04T22:46:42.420Z,9.77
2023-01-04T22:49:10.418Z,10.40
2023-01-04T22:51:37.150Z,9.75
2023-01-04T22:54:05.805Z,10.07
2023-01-04T22:56:32.754Z,9.80
2023-01-04T22:58:59.601Z,10.05
2023-01-04T23:01:30.015Z,9.90
2023-01-04T23:03:58.527Z,10.15
2023-01-04T23:06:27.076Z,8.77
2023-01-04T23:09:03.115Z,9.35
2023-01-04T23:11:31.299Z,10.38
2023-01-04T23:13:58.668Z,10.05
2023-01-04T23:16:32.036Z,9.30
2023-01-04T23:19:00.250Z,10.10
2023-01-04T23:21:27.088Z,9.80
2023-01-04T23:23:53.844Z,9.90
2023-01-04T23:26:22.967Z,9.18
2023-01-04T23:28:50.730Z,8.82
2023-01-04T23:31:20.597Z,9.98
2023-01-04T23:33:47.842Z,9.07
2023-01-04T23:36:20.314Z,8.90
2023-01-04T23:38:51.814Z,9.98
2023-01-04T23:41:19.355Z,11.82
2023-01-04T23:43:46.493Z,8.73
2023-01-04T23:46:16.220Z,10.00
2023-01-04T23:48:43.616Z,8.57
2023-01-04T23:51:12.158Z,8.65
2023-01-04T23:53:38.999Z,9.15
2023-01-04T23:56:08.298Z,9.93
2023-01-04T23:58:35.398Z,8.80
